Time;durP1;ratioP1;P1;durP2;ratioP2;P2;SDS_P1;SDS_P2;PMS_P1;PMS_P2;Temp;Humidity;BMP_temperature;BMP_pressure;BME280_temperature;BME280_humidity;BME280_pressure;Samples;Min_cycle;Max_cycle;Signal;HPM_P1;HPM_P2
2022/01/07 00:00:22;;;;;;;6.13;5.53;;;21.60;46.60;;;;;;4989024;28;20182;-70
2022/01/07 00:02:55;;;;;;;5.70;5.20;;;21.60;46.60;;;;;;4956467;28;20201;-70
2022/01/07 00:05:23;;;;;;;6.63;5.60;;;21.60;46.50;;;;;;4956435;28;20664;-70
2022/01/07 00:07:49;;;;;;;6.13;5.45;;;21.60;46.40;;;;;;4973623;28;20170;-71
2022/01/07 00:10:20;;;;;;;6.20;5.60;;;21.60;46.30;;;;;;4969395;28;20733;-70
2022/01/07 00:12:47;;;;;;;6.45;5.85;;;21.60;46.40;;;;;;4975503;28;20304;-70
2022/01/07 00:15:13;;;;;;;6.35;5.63;;;21.60;46.40;;;;;;4980518;28;20272;-70
2022/01/07 00:17:39;;;;;;;6.10;5.50;;;21.60;46.40;;;;;;4972420;28;20273;-70
2022/01/07 00:20:11;;;;;;;5.82;5.22;;;21.60;46.30;;;;;;4988524;28;20209;-70
2022/01/07 00:22:40;;;;;;;5.70;5.18;;;21.60;46.20;;;;;;4972343;28;20280;-70
2022/01/07 00:25:09;;;;;;;5.95;5.28;;;21.50;46.20;;;;;;4989947;28;20186;-70
2022/01/07 00:27:35;;;;;;;5.00;4.50;;;21.50;46.20;;;;;;4956525;28;20193;-70
2022/01/07 00:30:03;;;;;;;5.90;4.85;;;21.50;46.30;;;;;;4973459;28;20182;-70
2022/01/07 00:32:29;;;;;;;5.78;5.28;;;21.50;46.20;;;;;;4972111;28;20214;-70
2022/01/07 00:34:55;;;;;;;5.53;5.03;;;21.50;46.20;;;;;;4971958;28;20677;-70
2022/01/07 00:37:21;;;;;;;5.88;5.28;;;21.50;46.20;;;;;;4973309;28;20192;-70
2022/01/07 00:39:47;;;;;;;6.03;5.43;;;21.50;46.10;;;;;;4988201;28;20284;-70
2022/01/07 00:42:13;;;;;;;5.55;5.05;;;21.50;46.10;;;;;;4956085;28;20200;-70
2022/01/07 00:44:39;;;;;;;5.25;4.75;;;21.60;46.20;;;;;;4971883;28;20206;-70
2022/01/07 00:47:06;;;;;;;5.65;5.03;;;21.50;46.10;;;;;;4955991;28;20181;-70
2022/01/07 00:49:33;;;;;;;5.75;5.22;;;21.50;46.10;;;;;;4972181;28;20192;-70
2022/01/07 00:52:01;;;;;;;5.78;5.10;;;21.50;46.00;;;;;;4972024;28;20208;-71
2022/01/07 00:54:27;;;;;;;5.28;4.78;;;21.50;46.00;;;;;;4988037;28;20205;-70
2022/01/07 00:56:54;;;;;;;5.93;5.32;;;21.50;45.90;;;;;;4971972;28;20190;-70
2022/01/07 00:59:20;;;;;;;6.05;5.45;;;21.50;46.00;;;;;;4988180;28;20213;-70
2022/01/07 01:01:47;;;;;;;6.50;5.80;;;21.60;46.20;;;;;;4988633;28;20185;-70
2022/01/07 01:04:13;;;;;;;6.20;5.60;;;21.50;46.50;;;;;;4971849;28;20218;-71
2022/01/07 01:06:41;;;;;;;6.20;5.60;;;21.50;45.90;;;;;;4955983;28;20189;-70
2022/01/07 01:09:10;;;;;;;6.63;5.85;;;21.50;45.80;;;;;;4974468;28;20196;-70
2022/01/07 01:14:12;;;;;;;5.40;4.90;;;21.50;45.90;;;;;;4974536;28;20221;-70
2022/01/07 01:16:38;;;;;;;5.95;5.30;;;21.50;45.90;;;;;;4974434;28;20186;-71
2022/01/07 01:19:05;;;;;;;6.05;5.38;;;21.50;45.90;;;;;;4974953;28;20224;-71
2022/01/07 01:21:33;;;;;;;6.13;5.53;;;21.50;45.90;;;;;;4971549;28;20213;-71
2022/01/07 01:23:59;;;;;;;5.47;4.97;;;21.50;45.90;;;;;;4955505;29;20182;-71
2022/01/07 01:26:25;;;;;;;5.07;4.68;;;21.50;45.80;;;;;;4956321;29;20193;-71
2022/01/07 01:28:51;;;;;;;5.50;5.00;;;21.50;45.80;;;;;;4955333;28;20194;-71
2022/01/07 01:31:18;;;;;;;5.65;5.07;;;21.50;46.40;;;;;;4955478;29;20234;-71
2022/01/07 01:33:45;;;;;;;6.38;5.10;;;21.50;45.80;;;;;;4956623;28;20281;-71
2022/01/07 01:36:12;;;;;;;5.95;5.35;;;21.50;45.80;;;;;;4939452;29;20249;-71
2022/01/07 01:38:39;;;;;;;5.82;5.22;;;21.50;45.80;;;;;;4971254;28;20214;-71
2022/01/07 01:41:06;;;;;;;6.57;5.70;;;21.50;45.70;;;;;;4954795;29;20633;-71
2022/01/07 01:43:33;;;;;;;6.38;5.72;;;21.50;45.50;;;;;;4955168;28;20187;-71
2022/01/07 01:45:58;;;;;;;5.72;4.93;;;21.50;45.60;;;;;;4970892;28;20217;-71
2022/01/07 01:48:24;;;;;;;6.07;5.38;;;21.50;45.60;;;;;;4971141;28;20209;-71
2022/01/07 01:50:51;;;;;;;6.32;5.68;;;21.50;45.50;;;;;;4955006;28;20215;-71
2022/01/07 01:53:17;;;;;;;7.03;5.72;;;21.50;46.20;;;;;;4971153;28;20186;-71
2022/01/07 01:55:44;;;;;;;7.25;5.80;;;21.50;45.50;;;;;;4955762;29;20197;-71
2022/01/07 01:58:11;;;;;;;5.65;5.15;;;21.50;45.60;;;;;;4954897;28;20626;-71
2022/01/07 02:00:38;;;;;;;5.95;5.35;;;21.40;45.50;;;;;;4956187;29;20202;-71
2022/01/07 02:03:05;;;;;;;5.50;5.00;;;21.50;45.50;;;;;;4970992;28;20191;-71
2022/01/07 02:05:32;;;;;;;5.68;4.60;;;21.50;45.60;;;;;;4970562;28;20269;-71
2022/01/07 02:07:58;;;;;;;5.45;4.95;;;21.50;45.60;;;;;;4970798;28;20678;-71
2022/01/07 02:10:26;;;;;;;5.65;5.05;;;21.50;45.60;;;;;;4970666;28;20202;-71
2022/01/07 02:12:52;;;;;;;5.55;4.93;;;21.50;46.20;;;;;;4955873;29;20286;-71
2022/01/07 02:15:18;;;;;;;4.90;4.35;;;21.50;45.60;;;;;;4970367;28;20278;-71
2022/01/07 02:17:49;;;;;;;5.35;4.80;;;21.50;45.60;;;;;;4970578;28;20269;-71
2022/01/07 02:20:19;;;;;;;5.25;4.43;;;21.50;45.50;;;;;;4970478;28;20606;-71
2022/01/07 02:22:45;;;;;;;5.03;4.63;;;21.60;45.60;;;;;;4970426;28;20194;-71
2022/01/07 02:25:12;;;;;;;5.15;4.60;;;21.50;45.50;;;;;;4970187;28;20183;-71
2022/01/07 02:27:42;;;;;;;5.00;4.50;;;21.50;45.50;;;;;;4970461;28;20650;-71
2022/01/07 02:30:29;;;;;;;5.28;4.78;;;21.50;45.50;;;;;;4970230;28;20221;-71
2022/01/07 02:32:57;;;;;;;5.15;4.45;;;21.50;45.50;;;;;;4954464;29;20209;-71
2022/01/07 02:35:31;;;;;;;4.72;4.28;;;21.50;45.50;;;;;;4970085;28;20197;-71
2022/01/07 02:37:58;;;;;;;5.22;4.53;;;21.50;45.50;;;;;;4954452;28;20221;-71
2022/01/07 02:40:24;;;;;;;4.85;4.45;;;21.50;45.50;;;;;;4954054;28;20218;-71
2022/01/07 02:42:50;;;;;;;4.68;4.10;;;21.50;45.50;;;;;;4954440;28;20243;-71
2022/01/07 02:45:16;;;;;;;4.43;4.03;;;21.50;45.60;;;;;;4969887;28;20228;-71
2022/01/07 02:47:54;;;;;;;4.25;3.92;;;21.50;45.60;;;;;;4970115;28;20558;-71
2022/01/07 02:50:28;;;;;;;4.75;4.25;;;21.50;45.50;;;;;;4970157;28;20209;-71
2022/01/07 02:52:56;;;;;;;5.07;4.50;;;21.50;45.50;;;;;;4954060;28;20206;-71
2022/01/07 02:55:23;;;;;;;4.38;3.85;;;21.50;45.50;;;;;;4969635;28;20222;-72
2022/01/07 02:57:50;;;;;;;4.25;3.85;;;21.50;45.50;;;;;;4953752;28;20638;-72
2022/01/07 03:00:17;;;;;;;4.30;3.90;;;21.50;45.40;;;;;;4953570;28;20262;-71
2022/01/07 03:02:46;;;;;;;3.95;3.63;;;21.60;45.60;;;;;;4961559;28;20297;-71
2022/01/07 03:05:12;;;;;;;4.53;4.07;;;21.50;45.40;;;;;;4955652;28;20188;-71
2022/01/07 03:07:41;;;;;;;4.30;3.90;;;21.60;45.50;;;;;;4972842;28;20182;-71
2022/01/07 03:10:09;;;;;;;4.30;3.90;;;21.50;45.40;;;;;;4967924;28;20693;-71
2022/01/07 03:12:36;;;;;;;4.20;3.80;;;21.50;45.50;;;;;;4953117;29;20249;-71
2022/01/07 03:15:05;;;;;;;4.30;3.90;;;21.50;45.50;;;;;;4953277;29;20681;-71
2022/01/07 03:17:30;;;;;;;4.03;3.67;;;21.50;45.50;;;;;;4953369;29;20201;-71
2022/01/07 03:19:56;;;;;;;4.38;3.90;;;21.50;45.50;;;;;;4953091;29;20237;-71
2022/01/07 03:22:22;;;;;;;4.05;3.65;;;21.50;45.50;;;;;;4953595;29;20186;-71
2022/01/07 03:24:48;;;;;;;3.72;3.42;;;21.50;45.40;;;;;;4952982;28;20253;-71
2022/01/07 03:27:14;;;;;;;3.58;3.28;;;21.50;45.60;;;;;;4953485;28;20220;-71
2022/01/07 03:29:39;;;;;;;3.47;3.17;;;21.50;45.60;;;;;;4953315;29;20273;-71
2022/01/07 03:32:06;;;;;;;3.70;3.40;;;21.50;45.60;;;;;;4952806;28;20207;-71
2022/01/07 03:34:31;;;;;;;3.50;3.20;;;21.50;45.60;;;;;;4936984;29;20190;-71
2022/01/07 03:36:57;;;;;;;3.42;3.13;;;21.50;45.60;;;;;;4953272;28;20237;-71
2022/01/07 03:39:23;;;;;;;3.40;3.10;;;21.50;45.60;;;;;;4952847;28;20219;-71
2022/01/07 03:41:49;;;;;;;3.28;2.97;;;21.60;45.70;;;;;;4952952;29;20206;-71
2022/01/07 03:44:15;;;;;;;3.63;3.33;;;21.50;45.60;;;;;;4969096;28;20650;-71
2022/01/07 03:46:40;;;;;;;3.28;2.97;;;21.60;45.70;;;;;;4954519;29;20186;-71
2022/01/07 03:49:06;;;;;;;3.42;3.13;;;21.50;45.50;;;;;;4968983;28;20196;-72
2022/01/07 03:51:32;;;;;;;3.17;2.90;;;21.60;45.60;;;;;;4968915;28;20740;-72
2022/01/07 03:53:58;;;;;;;3.50;3.20;;;21.60;45.60;;;;;;4952766;29;20696;-71
2022/01/07 03:56:23;;;;;;;3.33;3.03;;;21.60;45.60;;;;;;4952661;28;20569;-71
2022/01/07 03:58:49;;;;;;;3.40;3.10;;;21.50;45.50;;;;;;4968758;28;20213;-71
2022/01/07 04:01:15;;;;;;;3.13;2.83;;;21.60;45.60;;;;;;4952782;29;20221;-71
2022/01/07 04:03:41;;;;;;;3.50;3.20;;;21.60;45.60;;;;;;4952651;29;20209;-71
2022/01/07 04:06:07;;;;;;;3.22;3.00;;;21.60;45.60;;;;;;4952627;29;20194;-71
2022/01/07 04:08:32;;;;;;;3.17;2.88;;;21.60;45.60;;;;;;4968839;28;20198;-71
2022/01/07 04:10:58;;;;;;;3.63;3.33;;;21.60;45.60;;;;;;4968281;28;20225;-71
2022/01/07 04:13:24;;;;;;;3.22;3.00;;;21.60;45.60;;;;;;4968730;28;20238;-71
2022/01/07 04:15:50;;;;;;;3.20;2.90;;;21.60;45.60;;;;;;4952659;28;20194;-71
2022/01/07 04:18:16;;;;;;;2.80;2.60;;;21.60;45.60;;;;;;4968722;28;20705;-71
2022/01/07 04:20:41;;;;;;;3.47;3.17;;;21.60;45.60;;;;;;4952444;28;20682;-72
2022/01/07 04:23:08;;;;;;;3.42;3.13;;;21.60;45.60;;;;;;4968861;28;20233;-71
2022/01/07 04:25:35;;;;;;;3.25;2.95;;;21.60;45.60;;;;;;4968563;28;20233;-71
2022/01/07 04:28:05;;;;;;;3.30;2.90;;;21.60;45.60;;;;;;4968641;28;20217;-71
2022/01/07 04:30:36;;;;;;;2.90;2.60;;;21.50;45.50;;;;;;4953618;29;20230;-71
2022/01/07 04:33:05;;;;;;;2.85;2.65;;;21.60;45.60;;;;;;4968470;28;20201;-72
2022/01/07 04:35:35;;;;;;;2.80;2.60;;;21.60;45.60;;;;;;4968181;28;20190;-71
2022/01/07 04:38:02;;;;;;;2.80;2.60;;;21.60;45.60;;;;;;4968653;28;20194;-71
2022/01/07 04:40:28;;;;;;;2.95;2.75;;;21.60;45.60;;;;;;4952431;29;20214;-71
2022/01/07 04:42:54;;;;;;;3.10;2.90;;;21.60;45.60;;;;;;4969257;28;20234;-71
2022/01/07 04:45:20;;;;;;;2.85;2.65;;;21.60;45.60;;;;;;4972126;28;20193;-71
2022/01/07 04:47:46;;;;;;;2.90;2.65;;;21.60;45.60;;;;;;4972398;28;20191;-71
2022/01/07 04:50:19;;;;;;;2.85;2.65;;;21.60;45.60;;;;;;4972294;28;20206;-71
2022/01/07 04:52:46;;;;;;;3.50;3.20;;;21.60;45.60;;;;;;4972269;28;20190;-71
2022/01/07 04:55:18;;;;;;;3.60;3.30;;;21.60;45.60;;;;;;4972037;28;20249;-71
2022/01/07 04:57:45;;;;;;;3.63;3.33;;;21.60;45.60;;;;;;4972119;28;20187;-71
2022/01/07 05:00:13;;;;;;;3.63;3.33;;;21.60;45.60;;;;;;4974369;28;20221;-71
2022/01/07 05:02:39;;;;;;;3.20;2.92;;;21.60;45.60;;;;;;4955982;28;20207;-71
2022/01/07 05:05:05;;;;;;;3.45;3.15;;;21.60;45.60;;;;;;4955773;29;20190;-71
2022/01/07 05:07:33;;;;;;;3.53;3.22;;;21.60;45.60;;;;;;4957109;28;20190;-71
2022/01/07 05:09:59;;;;;;;3.13;2.83;;;21.60;45.60;;;;;;4955804;29;20218;-71
2022/01/07 05:12:25;;;;;;;3.22;2.80;;;21.60;45.60;;;;;;4955502;28;20244;-71
2022/01/07 05:14:51;;;;;;;3.50;2.95;;;21.60;45.70;;;;;;4955410;28;20199;-71
2022/01/07 05:17:16;;;;;;;3.10;2.80;;;21.60;45.70;;;;;;4957030;28;20614;-72
2022/01/07 05:19:42;;;;;;;3.17;2.88;;;21.60;45.70;;;;;;4939613;29;20226;-71
2022/01/07 05:22:08;;;;;;;3.10;2.88;;;21.60;45.70;;;;;;4955533;29;20217;-71
2022/01/07 05:24:34;;;;;;;3.28;3.03;;;21.60;45.70;;;;;;4955328;29;20281;-71
2022/01/07 05:26:59;;;;;;;2.75;2.55;;;21.60;45.70;;;;;;4955510;28;20218;-71
2022/01/07 05:29:25;;;;;;;3.15;2.92;;;21.60;45.70;;;;;;4955401;28;20280;-71
2022/01/07 05:31:51;;;;;;;3.20;2.47;;;21.60;45.70;;;;;;4955357;29;20221;-72
2022/01/07 05:34:17;;;;;;;3.05;2.83;;;21.60;45.60;;;;;;4955300;29;20202;-71
2022/01/07 05:36:43;;;;;;;2.85;2.63;;;21.60;45.70;;;;;;4955307;29;20190;-71
2022/01/07 05:39:09;;;;;;;2.38;2.22;;;21.60;45.70;;;;;;4955167;29;20326;-71
2022/01/07 05:41:35;;;;;;;3.13;2.92;;;21.60;45.60;;;;;;4939194;29;20290;-71
2022/01/07 05:44:00;;;;;;;2.78;2.58;;;21.60;45.70;;;;;;4939333;29;20197;-71
2022/01/07 05:46:26;;;;;;;3.30;3.00;;;21.60;45.60;;;;;;4938768;29;20191;-71
2022/01/07 05:48:52;;;;;;;3.08;2.88;;;21.60;45.60;;;;;;4971412;28;20197;-71
2022/01/07 05:51:18;;;;;;;3.08;2.88;;;21.60;45.70;;;;;;4954964;29;20222;-71
2022/01/07 05:53:44;;;;;;;3.35;3.05;;;21.70;45.80;;;;;;4970625;28;20197;-71
2022/01/07 05:56:10;;;;;;;3.97;3.58;;;21.60;45.70;;;;;;4970662;28;20669;-71
2022/01/07 05:58:35;;;;;;;2.83;2.63;;;21.60;45.70;;;;;;4954899;29;20214;-71
2022/01/07 06:01:04;;;;;;;3.63;3.33;;;21.60;45.70;;;;;;4970648;28;20210;-71
2022/01/07 06:03:31;;;;;;;3.10;2.90;;;21.60;45.80;;;;;;4971051;28;20574;-71
2022/01/07 06:05:56;;;;;;;3.63;3.33;;;21.60;45.70;;;;;;4970580;28;20198;-71
2022/01/07 06:08:22;;;;;;;2.83;2.63;;;21.60;45.70;;;;;;4970075;28;20193;-71
2022/01/07 06:10:48;;;;;;;2.85;2.65;;;21.60;45.70;;;;;;4946361;28;20249;-71
2022/01/07 06:13:14;;;;;;;2.83;2.63;;;21.60;45.80;;;;;;4954615;28;20194;-71
2022/01/07 06:15:39;;;;;;;2.53;2.33;;;21.70;45.80;;;;;;4970693;28;20182;-71
2022/01/07 06:18:06;;;;;;;2.72;2.53;;;21.70;46.40;;;;;;4970803;28;20708;-71
2022/01/07 06:20:32;;;;;;;2.63;2.42;;;21.70;45.80;;;;;;4954463;28;20681;-71
2022/01/07 06:22:58;;;;;;;2.70;2.50;;;21.60;45.70;;;;;;4970542;28;20273;-71
2022/01/07 06:25:24;;;;;;;2.40;2.20;;;21.60;45.70;;;;;;4954019;28;20193;-71
2022/01/07 06:27:50;;;;;;;2.55;2.35;;;21.70;45.80;;;;;;4954553;28;20198;-71
2022/01/07 06:30:16;;;;;;;2.38;2.25;;;21.60;45.70;;;;;;4970628;28;20210;-71
2022/01/07 06:32:42;;;;;;;2.75;2.45;;;21.60;45.70;;;;;;4970440;28;20268;-71
2022/01/07 06:35:09;;;;;;;2.33;2.15;;;21.70;45.70;;;;;;4954164;28;20261;-71
2022/01/07 06:37:37;;;;;;;2.65;2.45;;;21.70;45.70;;;;;;4954128;29;20191;-71
2022/01/07 06:40:06;;;;;;;2.45;2.30;;;21.70;45.70;;;;;;4953930;28;20211;-71
2022/01/07 06:42:32;;;;;;;2.60;2.40;;;21.70;45.70;;;;;;4970376;28;20193;-71
2022/01/07 06:44:58;;;;;;;2.58;2.38;;;21.70;45.70;;;;;;4953954;28;20281;-71
2022/01/07 06:47:24;;;;;;;2.53;2.33;;;21.60;46.20;;;;;;4953963;28;20273;-71
2022/01/07 06:49:50;;;;;;;2.60;2.40;;;21.70;45.70;;;;;;4969955;28;20190;-71
2022/01/07 06:52:16;;;;;;;2.70;2.50;;;21.70;45.70;;;;;;4965539;28;20586;-71
2022/01/07 06:54:42;;;;;;;3.25;2.70;;;21.60;45.70;;;;;;4934502;29;20187;-70
2022/01/07 06:57:08;;;;;;;2.58;2.38;;;21.60;45.70;;;;;;4950750;28;20209;-71
2022/01/07 06:59:33;;;;;;;2.38;2.17;;;21.70;45.70;;;;;;4967133;28;20241;-71
2022/01/07 07:01:59;;;;;;;2.90;2.70;;;21.70;45.80;;;;;;4966683;28;20270;-71
2022/01/07 07:04:25;;;;;;;2.90;2.38;;;21.70;45.70;;;;;;4966556;28;20240;-71
2022/01/07 07:06:51;;;;;;;2.30;2.10;;;21.70;45.70;;;;;;4949930;28;20191;-71
2022/01/07 07:09:18;;;;;;;2.08;1.95;;;21.70;45.80;;;;;;4950417;29;20183;-71
2022/01/07 07:11:44;;;;;;;2.17;1.98;;;21.70;45.80;;;;;;4993723;23;20240;-74
2022/01/07 07:14:11;;;;;;;2.30;2.10;;;21.70;45.80;;;;;;4976954;28;20277;-75
2022/01/07 07:16:37;;;;;;;2.40;1.92;;;21.70;45.80;;;;;;4976374;28;20636;-74
2022/01/07 07:19:04;;;;;;;2.40;2.20;;;21.70;45.80;;;;;;4960782;28;20332;-72
2022/01/07 07:21:29;;;;;;;2.17;2.03;;;21.70;45.70;;;;;;4981939;28;20210;-71
2022/01/07 07:23:55;;;;;;;2.70;2.50;;;21.70;45.70;;;;;;4941447;28;20192;-72
2022/01/07 07:26:21;;;;;;;2.28;2.08;;;21.70;45.70;;;;;;4941081;28;20248;-72
2022/01/07 07:28:47;;;;;;;2.08;1.98;;;21.70;45.70;;;;;;4974239;28;20193;-72
2022/01/07 07:31:16;;;;;;;2.47;2.28;;;21.70;45.70;;;;;;4974246;28;20260;-71
2022/01/07 07:34:17;;;;;;;2.80;2.42;;;21.70;45.70;;;;;;4957196;28;20213;-72
2022/01/07 07:36:30;;;;;;;2.58;2.38;;;21.70;45.70;;;;;;4956769;28;20284;-72
2022/01/07 07:39:15;;;;;;;2.38;2.17;;;21.70;45.70;;;;;;4941079;28;20231;-72
2022/01/07 07:41:42;;;;;;;3.38;2.38;;;21.70;45.70;;;;;;4957247;28;20308;-72
2022/01/07 07:44:09;;;;;;;2.67;2.47;;;21.70;45.80;;;;;;4957870;28;20209;-72
2022/01/07 07:46:38;;;;;;;2.70;2.50;;;21.60;45.70;;;;;;4956792;28;20182;-72
2022/01/07 07:49:05;;;;;;;2.20;2.10;;;21.70;45.80;;;;;;4957228;28;20209;-72
2022/01/07 07:51:32;;;;;;;2.03;1.90;;;21.70;45.80;;;;;;4956727;28;20220;-72
2022/01/07 07:53:58;;;;;;;2.22;2.03;;;21.70;45.80;;;;;;4956915;28;20198;-72
2022/01/07 07:56:26;;;;;;;2.20;2.00;;;21.70;45.70;;;;;;4956675;28;20240;-71
2022/01/07 07:58:52;;;;;;;2.13;2.03;;;21.70;45.70;;;;;;4980696;28;20213;-71
2022/01/07 08:01:18;;;;;;;2.38;2.17;;;21.70;45.70;;;;;;4972353;28;20214;-71
2022/01/07 08:03:46;;;;;;;2.28;2.08;;;21.70;45.70;;;;;;4956564;28;20249;-71
2022/01/07 08:06:12;;;;;;;2.60;2.40;;;21.70;45.60;;;;;;4956102;28;20193;-71
2022/01/07 08:08:38;;;;;;;2.30;2.10;;;21.70;45.60;;;;;;4940900;28;20190;-72
2022/01/07 08:11:08;;;;;;;2.20;2.10;;;21.70;45.70;;;;;;4940358;28;20276;-71
2022/01/07 08:16:22;;;;;;;2.70;2.50;;;21.70;45.60;;;;;;4973274;28;20192;-71
2022/01/07 08:18:53;;;;;;;2.53;2.33;;;21.70;45.60;;;;;;4944150;28;20257;-71
2022/01/07 08:21:24;;;;;;;2.97;2.67;;;21.80;45.80;;;;;;4953139;28;20202;-72
2022/01/07 08:23:51;;;;;;;2.63;2.35;;;21.80;45.80;;;;;;4937148;29;20193;-72
2022/01/07 08:26:18;;;;;;;2.30;2.10;;;21.80;45.70;;;;;;4954103;29;20170;-74
2022/01/07 08:28:52;;;;;;;2.17;1.98;;;21.70;45.70;;;;;;4953033;29;20225;-72
2022/01/07 08:36:34;;;;;;;2.00;1.90;;;21.80;45.80;;;;;;4952863;29;20233;-71
2022/01/07 08:39:01;;;;;;;1.73;1.58;;;21.80;45.70;;;;;;4953038;29;20228;-71
2022/01/07 08:41:30;;;;;;;2.22;2.05;;;21.80;45.70;;;;;;4953183;28;20206;-71
2022/01/07 08:43:57;;;;;;;2.13;1.98;;;21.80;45.70;;;;;;4952832;29;20245;-71
2022/01/07 08:46:23;;;;;;;2.13;2.00;;;21.80;45.80;;;;;;4936775;29;20236;-71
2022/01/07 08:48:49;;;;;;;2.20;2.00;;;21.80;45.80;;;;;;4965071;28;20185;-71
2022/01/07 08:51:16;;;;;;;2.10;1.90;;;21.80;45.80;;;;;;4955859;28;20249;-71
2022/01/07 08:53:42;;;;;;;2.22;2.10;;;21.80;45.80;;;;;;4956282;28;20305;-73
2022/01/07 08:56:09;;;;;;;2.58;2.38;;;21.80;45.80;;;;;;4947659;28;20201;-73
2022/01/07 08:58:35;;;;;;;2.10;2.00;;;21.80;45.80;;;;;;4955707;28;20220;-72
2022/01/07 09:01:03;;;;;;;2.35;2.15;;;21.80;45.70;;;;;;4956190;28;20264;-73
2022/01/07 09:03:29;;;;;;;2.30;2.10;;;21.80;45.80;;;;;;4940073;28;20328;-73
2022/01/07 09:05:55;;;;;;;2.13;2.03;;;21.80;45.80;;;;;;4955929;28;20194;-72
2022/01/07 09:08:22;;;;;;;1.92;1.83;;;21.80;45.80;;;;;;4956123;28;20208;-74
2022/01/07 09:10:48;;;;;;;1.77;1.60;;;21.80;45.80;;;;;;4955487;28;20578;-72
2022/01/07 09:13:14;;;;;;;4.13;2.25;;;21.90;45.90;;;;;;4939760;28;20181;-71
2022/01/07 09:15:40;;;;;;;1.98;1.80;;;21.90;46.70;;;;;;4952020;28;20269;-71
2022/01/07 09:18:09;;;;;;;3.80;1.80;;;21.90;46.40;;;;;;4962027;28;20213;-71
2022/01/07 09:20:41;;;;;;;1.90;1.80;;;21.80;46.50;;;;;;4972787;28;20221;-71
2022/01/07 09:23:09;;;;;;;1.98;1.77;;;21.90;46.40;;;;;;4939987;28;20181;-71
2022/01/07 09:25:35;;;;;;;1.98;1.88;;;21.90;46.40;;;;;;4971729;28;20185;-71
2022/01/07 09:28:01;;;;;;;2.20;1.88;;;21.80;46.30;;;;;;4940062;28;20272;-71
2022/01/07 09:30:28;;;;;;;2.13;1.80;;;21.80;46.30;;;;;;4942617;28;20185;-71
2022/01/07 09:32:54;;;;;;;2.17;1.98;;;21.90;46.30;;;;;;4976354;28;20181;-71
2022/01/07 09:35:20;;;;;;;2.35;2.03;;;21.90;46.30;;;;;;4943291;28;20236;-71
2022/01/07 09:37:46;;;;;;;1.92;1.80;;;21.90;46.30;;;;;;4976414;28;20236;-71
2022/01/07 09:40:13;;;;;;;2.00;1.75;;;21.90;46.30;;;;;;4942844;28;20252;-71
2022/01/07 09:42:53;;;;;;;3.00;2.45;;;21.80;46.20;;;;;;4942950;28;20229;-71
2022/01/07 09:45:22;;;;;;;2.50;2.20;;;21.90;46.30;;;;;;4942870;28;20177;-71
2022/01/07 09:47:48;;;;;;;2.97;2.05;;;21.90;46.30;;;;;;4939436;29;20669;-72
2022/01/07 09:50:13;;;;;;;2.25;2.05;;;21.90;46.30;;;;;;4957760;28;20190;-72
2022/01/07 09:52:39;;;;;;;1.77;1.67;;;21.90;46.30;;;;;;4942660;28;20193;-72
2022/01/07 09:55:06;;;;;;;1.80;1.70;;;21.90;46.30;;;;;;4942369;28;20240;-71
2022/01/07 09:57:32;;;;;;;2.00;1.80;;;21.90;46.30;;;;;;4942545;28;20225;-72
2022/01/07 10:00:00;;;;;;;1.67;1.58;;;21.90;46.30;;;;;;4942739;28;20217;-71
2022/01/07 10:02:26;;;;;;;2.17;1.98;;;21.90;46.30;;;;;;4958507;28;20210;-71
2022/01/07 10:04:51;;;;;;;3.72;1.80;;;21.90;46.30;;;;;;4942431;28;20190;-71
2022/01/07 10:07:25;;;;;;;1.90;1.73;;;21.90;46.20;;;;;;4958767;28;20660;-71
2022/01/07 10:10:04;;;;;;;1.70;1.60;;;21.90;46.20;;;;;;4942968;28;20200;-72
2022/01/07 10:13:02;;;;;;;1.90;1.80;;;21.90;46.20;;;;;;4952748;28;20214;-71
2022/01/07 10:15:38;;;;;;;2.15;1.95;;;21.90;46.20;;;;;;4955074;29;20195;-70
2022/01/07 10:18:11;;;;;;;2.55;2.20;;;21.90;46.20;;;;;;4921824;29;20189;-71
2022/01/07 10:20:41;;;;;;;2.55;2.35;;;21.90;46.20;;;;;;4937438;29;20233;-70
2022/01/07 10:23:23;;;;;;;1.80;1.70;;;21.90;46.40;;;;;;4955076;29;20183;-69
2022/01/07 10:25:55;;;;;;;3.55;1.90;;;22.00;48.10;;;;;;4922035;29;20186;-70
2022/01/07 10:28:28;;;;;;;3.63;1.88;;;22.00;47.50;;;;;;4938076;29;20190;-69
2022/01/07 10:30:55;;;;;;;2.10;1.90;;;22.00;47.60;;;;;;4954181;29;20213;-69
2022/01/07 10:33:25;;;;;;;1.77;1.50;;;22.00;47.60;;;;;;4937856;29;20204;-71
2022/01/07 10:36:23;;;;;;;3.38;2.20;;;22.00;47.40;;;;;;4955320;29;20658;-69
2022/01/07 10:38:59;;;;;;;3.75;2.40;;;22.00;48.50;;;;;;4946456;29;20257;-68
2022/01/07 10:41:25;;;;;;;5.88;2.80;;;22.10;51.60;;;;;;4936703;29;20273;-68
2022/01/07 10:43:52;;;;;;;4.32;3.15;;;22.10;53.30;;;;;;4922409;29;20422;-68
2022/01/07 10:46:25;;;;;;;5.95;3.25;;;22.20;54.10;;;;;;4937881;29;20187;-68
2022/01/07 10:49:04;;;;;;;4.05;3.35;;;22.20;54.50;;;;;;4937767;29;20202;-68
2022/01/07 10:51:38;;;;;;;4.72;2.90;;;22.20;54.70;;;;;;4921708;29;20265;-68
2022/01/07 10:54:12;;;;;;;8.32;3.13;;;22.30;55.00;;;;;;4922084;29;20294;-69
2022/01/07 10:56:42;;;;;;;6.50;2.90;;;22.30;55.00;;;;;;4938207;29;20201;-68
2022/01/07 10:59:17;;;;;;;5.20;3.10;;;22.30;54.90;;;;;;4945904;28;20213;-68
2022/01/07 11:01:45;;;;;;;5.72;2.88;;;22.30;54.80;;;;;;4941636;28;20272;-68
2022/01/07 11:04:18;;;;;;;5.75;3.40;;;22.30;54.60;;;;;;4958034;28;20192;-68
2022/01/07 11:06:46;;;;;;;3.17;2.88;;;22.30;54.80;;;;;;4957620;28;20188;-71
2022/01/07 11:09:15;;;;;;;4.13;2.97;;;22.30;54.80;;;;;;4941252;28;20603;-68
2022/01/07 11:11:54;;;;;;;7.45;3.17;;;22.30;54.90;;;;;;4974495;28;20223;-71
2022/01/07 11:14:26;;;;;;;9.45;3.30;;;22.30;54.80;;;;;;4957168;28;20222;-69
2022/01/07 11:16:58;;;;;;;6.10;2.78;;;22.30;54.80;;;;;;4941110;28;20197;-70
2022/01/07 11:19:33;;;;;;;4.10;2.97;;;22.30;54.60;;;;;;4957257;28;20235;-69
2022/01/07 11:22:00;;;;;;;5.10;2.53;;;22.30;54.60;;;;;;4941598;28;20229;-70
2022/01/07 11:24:43;;;;;;;4.15;2.33;;;22.30;54.60;;;;;;4957337;28;20190;-69
2022/01/07 11:27:22;;;;;;;5.80;2.60;;;22.30;54.60;;;;;;4957259;28;20173;-70
2022/01/07 11:29:53;;;;;;;3.92;2.85;;;22.30;54.30;;;;;;4957179;28;20232;-70
2022/01/07 11:32:50;;;;;;;3.80;2.97;;;22.30;54.60;;;;;;4957211;28;20213;-70
2022/01/07 11:35:19;;;;;;;5.22;2.50;;;22.30;54.40;;;;;;4955067;28;20193;-71
2022/01/07 11:37:53;;;;;;;3.13;2.55;;;22.30;54.20;;;;;;4957385;28;20731;-71
2022/01/07 11:40:51;;;;;;;3.10;2.63;;;22.00;52.50;;;;;;4957218;28;20204;-70
2022/01/07 11:43:20;;;;;;;3.42;2.20;;;22.00;53.60;;;;;;4942053;28;20278;-70
2022/01/07 11:45:47;;;;;;;5.15;2.58;;;22.10;53.60;;;;;;4957496;28;20174;-69
2022/01/07 11:48:20;;;;;;;4.97;2.42;;;22.20;53.70;;;;;;4972849;28;20194;-70
2022/01/07 11:50:54;;;;;;;3.70;2.50;;;22.20;53.40;;;;;;4949832;28;20202;-70
2022/01/07 11:53:41;;;;;;;5.18;2.55;;;22.30;53.20;;;;;;4948340;28;20189;-70
2022/01/07 11:56:14;;;;;;;4.18;2.80;;;22.30;53.60;;;;;;4946176;28;20194;-70
2022/01/07 11:58:46;;;;;;;4.32;2.63;;;22.30;53.20;;;;;;4957600;28;20181;-70
2022/01/07 12:01:37;;;;;;;6.00;2.67;;;22.30;53.40;;;;;;4947977;28;20224;-70
2022/01/07 12:04:30;;;;;;;4.65;2.35;;;22.30;53.20;;;;;;4973264;28;20189;-70
2022/01/07 12:06:59;;;;;;;2.42;2.17;;;22.30;53.20;;;;;;4949664;28;20178;-69
2022/01/07 12:09:36;;;;;;;3.78;2.65;;;22.30;53.10;;;;;;4959072;28;20185;-70
2022/01/07 12:12:07;;;;;;;4.50;2.70;;;22.30;53.30;;;;;;4973234;28;20213;-71
2022/01/07 12:14:51;;;;;;;4.70;2.60;;;22.30;53.50;;;;;;4974148;28;20335;-70
2022/01/07 12:17:20;;;;;;;3.35;2.75;;;22.30;53.10;;;;;;4957286;28;20189;-71
2022/01/07 12:19:49;;;;;;;4.10;2.75;;;22.30;53.50;;;;;;4959789;28;20225;-71
2022/01/07 12:22:20;;;;;;;3.95;2.42;;;22.40;53.50;;;;;;4941519;28;20209;-71
2022/01/07 12:24:48;;;;;;;3.90;2.17;;;22.30;53.50;;;;;;4943439;28;20173;-71
2022/01/07 12:27:23;;;;;;;4.65;2.20;;;22.40;53.70;;;;;;4963292;28;20197;-69
2022/01/07 12:29:59;;;;;;;6.43;2.70;;;22.30;53.80;;;;;;4948634;28;20212;-70
2022/01/07 12:32:37;;;;;;;2.75;2.22;;;22.40;53.80;;;;;;4969871;28;20205;-69
2022/01/07 12:35:07;;;;;;;4.28;2.60;;;22.40;53.60;;;;;;4953114;28;20225;-69
2022/01/07 12:37:33;;;;;;;3.85;2.60;;;22.30;54.30;;;;;;4958716;28;20190;-70
2022/01/07 12:40:05;;;;;;;5.50;2.80;;;22.40;53.60;;;;;;4953019;28;20417;-70
2022/01/07 12:42:38;;;;;;;4.30;2.90;;;22.40;53.80;;;;;;4969149;28;20206;-72
2022/01/07 12:45:05;;;;;;;3.97;2.55;;;22.40;53.70;;;;;;4953084;28;20183;-69
2022/01/07 12:47:32;;;;;;;4.60;2.42;;;22.40;53.90;;;;;;4944916;28;20182;-69
2022/01/07 12:50:04;;;;;;;3.95;2.60;;;22.40;53.80;;;;;;4940163;28;20313;-69
2022/01/07 12:52:32;;;;;;;4.15;2.42;;;22.40;54.00;;;;;;4956020;28;20217;-69
2022/01/07 12:55:03;;;;;;;5.30;2.65;;;22.40;54.00;;;;;;4955745;28;20197;-69
2022/01/07 12:57:37;;;;;;;2.95;2.05;;;22.40;54.10;;;;;;4955911;28;20657;-69
2022/01/07 13:00:06;;;;;;;3.20;2.30;;;22.50;54.10;;;;;;4940240;28;20684;-69
2022/01/07 13:02:33;;;;;;;3.15;2.00;;;22.40;54.20;;;;;;4955597;28;20232;-69
2022/01/07 13:05:23;;;;;;;3.72;2.10;;;22.40;54.30;;;;;;4958094;28;20199;-69